createdAt,value
2018-12-11T00:01:33.722Z,4.73
2018-12-11T00:06:29.508Z,4.80
2018-12-11T00:11:25.283Z,5.03
2018-12-11T00:16:21.047Z,4.40
2018-12-11T00:21:16.804Z,3.83
2018-12-11T00:26:12.590Z,3.83
2018-12-11T00:31:08.379Z,4.40
2018-12-11T00:36:04.164Z,3.50
2018-12-11T00:40:59.926Z,3.50
2018-12-11T00:45:55.715Z,3.10
2018-12-11T00:50:51.511Z,3.33
2018-12-11T00:55:47.319Z,2.73
2018-12-11T01:00:43.079Z,3.17
2018-12-11T01:05:38.843Z,3.33
2018-12-11T01:10:34.666Z,3.40
2018-12-11T01:15:30.442Z,3.33
2018-12-11T01:20:26.219Z,2.87
2018-12-11T01:25:21.974Z,3.17
2018-12-11T01:30:17.759Z,3.50
2018-12-11T01:35:13.510Z,3.07
2018-12-11T01:40:09.323Z,3.53
2018-12-11T01:45:05.275Z,2.90
2018-12-11T01:50:01.052Z,3.37
2018-12-11T01:54:56.845Z,2.80
2018-12-11T01:59:52.634Z,2.77
2018-12-11T02:04:48.414Z,2.63
2018-12-11T02:09:44.199Z,2.60
2018-12-11T02:14:39.987Z,3.07
2018-12-11T02:19:35.831Z,2.93
2018-12-11T02:24:31.642Z,2.90
2018-12-11T02:29:27.448Z,2.90
2018-12-11T02:34:23.291Z,2.57
2018-12-11T02:39:19.069Z,2.80
2018-12-11T02:44:14.856Z,3.00
2018-12-11T02:49:10.626Z,3.50
2018-12-11T02:54:06.393Z,2.97
2018-12-11T02:59:02.279Z,2.50
2018-12-11T03:03:58.034Z,2.67
2018-12-11T03:08:53.824Z,2.70
2018-12-11T03:13:49.590Z,2.90
2018-12-11T03:18:45.362Z,2.57
2018-12-11T03:23:41.156Z,2.67
2018-12-11T03:28:36.916Z,2.77
2018-12-11T03:33:32.672Z,2.73
2018-12-11T03:38:28.449Z,2.40
2018-12-11T03:43:24.219Z,2.93
2018-12-11T03:48:19.961Z,2.17
2018-12-11T03:53:15.725Z,2.80
2018-12-11T03:58:11.736Z,2.27
2018-12-11T04:03:07.522Z,2.53
2018-12-11T04:08:03.315Z,2.50
2018-12-11T04:12:59.089Z,2.63
2018-12-11T04:17:54.866Z,2.70
2018-12-11T04:22:50.634Z,2.57
2018-12-11T04:27:46.431Z,2.60
2018-12-11T04:32:42.216Z,2.73
2018-12-11T04:37:37.989Z,2.70
2018-12-11T04:42:33.840Z,2.80
2018-12-11T04:47:29.602Z,2.90
2018-12-11T04:52:25.352Z,2.47
2018-12-11T04:57:21.145Z,2.40
2018-12-11T05:02:16.889Z,2.80
2018-12-11T05:07:12.659Z,2.63
2018-12-11T05:12:08.576Z,2.20
2018-12-11T05:17:04.365Z,2.43
2018-12-11T05:22:00.166Z,2.20
2018-12-11T05:26:56.155Z,2.50
2018-12-11T05:31:52.023Z,2.50
2018-12-11T05:36:47.792Z,3.37
2018-12-11T05:41:43.575Z,2.77
2018-12-11T05:46:39.347Z,2.57
2018-12-11T05:51:35.146Z,2.87
2018-12-11T05:56:30.942Z,2.70
2018-12-11T06:01:26.914Z,3.40
2018-12-11T06:06:22.705Z,2.90
2018-12-11T06:11:18.477Z,2.20
2018-12-11T06:16:14.607Z,2.67
2018-12-11T06:21:10.458Z,2.30
2018-12-11T06:26:06.271Z,2.40
2018-12-11T06:31:02.058Z,2.60
2018-12-11T06:35:57.825Z,3.00
2018-12-11T06:40:53.582Z,2.40
2018-12-11T06:45:49.409Z,2.70
2018-12-11T06:50:45.226Z,2.63
2018-12-11T06:55:41.164Z,3.03
2018-12-11T07:00:36.896Z,2.63
2018-12-11T07:05:32.762Z,3.27
2018-12-11T07:10:28.558Z,3.17
2018-12-11T07:15:24.318Z,2.57
2018-12-11T07:20:20.108Z,2.63
2018-12-11T07:25:15.851Z,3.33
2018-12-11T07:30:11.821Z,3.13
2018-12-11T07:35:07.601Z,3.87
2018-12-11T07:40:03.444Z,3.17
2018-12-11T07:44:59.227Z,3.00
2018-12-11T07:49:54.979Z,3.20
2018-12-11T07:54:50.754Z,2.80
2018-12-11T07:59:46.532Z,2.87
2018-12-11T08:04:42.302Z,2.67
2018-12-11T08:09:38.070Z,2.73
2018-12-11T08:14:33.869Z,3.30
2018-12-11T08:19:29.636Z,3.00
2018-12-11T08:24:25.377Z,3.27
2018-12-11T08:29:21.148Z,3.10
2018-12-11T08:34:16.941Z,2.63
2018-12-11T08:39:12.693Z,2.80
2018-12-11T08:44:08.494Z,2.90
2018-12-11T08:49:04.299Z,3.00
2018-12-11T08:54:00.096Z,2.97
2018-12-11T08:58:55.885Z,2.50
2018-12-11T09:03:51.644Z,2.63
2018-12-11T09:08:47.485Z,2.50
2018-12-11T09:13:44.096Z,2.73
2018-12-11T09:18:39.890Z,2.50
2018-12-11T09:23:35.664Z,3.27
2018-12-11T09:28:31.588Z,2.70
2018-12-11T09:33:27.336Z,2.93
2018-12-11T09:38:23.124Z,3.50
2018-12-11T09:43:18.853Z,3.17
2018-12-11T09:48:14.760Z,2.60
2018-12-11T09:53:10.553Z,3.53
2018-12-11T09:58:13.236Z,2.77
2018-12-11T10:03:09.030Z,2.80
2018-12-11T10:08:04.794Z,2.90
2018-12-11T10:13:00.770Z,2.30
2018-12-11T10:17:56.538Z,2.70
2018-12-11T10:22:52.306Z,2.47
2018-12-11T10:27:48.179Z,2.53
2018-12-11T10:32:45.956Z,1.87
2018-12-11T10:37:41.988Z,2.83
2018-12-11T10:42:37.766Z,2.30
2018-12-11T10:47:33.554Z,2.13
2018-12-11T10:52:29.310Z,2.43
2018-12-11T10:57:25.036Z,2.17
2018-12-11T11:02:22.955Z,2.30
2018-12-11T11:07:18.696Z,2.13
2018-12-11T11:12:14.429Z,2.30
2018-12-11T11:17:10.276Z,2.00
2018-12-11T11:22:06.008Z,1.97
2018-12-11T11:27:01.731Z,2.73
2018-12-11T11:31:57.526Z,3.00
2018-12-11T11:36:53.268Z,2.47
2018-12-11T11:41:49.004Z,2.20
2018-12-11T11:46:44.761Z,2.40
2018-12-11T11:51:40.488Z,2.87
2018-12-11T11:56:36.240Z,2.80
2018-12-11T12:01:32.072Z,2.67
2018-12-11T12:06:27.804Z,2.40
2018-12-11T12:11:23.552Z,2.80
2018-12-11T12:16:19.267Z,2.43
2018-12-11T12:21:15.000Z,2.67
2018-12-11T12:26:10.735Z,2.50
2018-12-11T12:31:06.818Z,2.60
2018-12-11T12:36:02.664Z,2.70
2018-12-11T12:40:58.401Z,2.63
2018-12-11T12:45:54.148Z,2.40
2018-12-11T12:50:49.913Z,2.30
2018-12-11T12:55:45.633Z,2.40
2018-12-11T13:00:41.557Z,2.87
2018-12-11T13:05:37.389Z,2.37
2018-12-11T13:10:33.802Z,2.80
2018-12-11T13:15:29.566Z,2.53
2018-12-11T13:20:25.289Z,2.87
2018-12-11T13:25:21.045Z,3.20
2018-12-11T13:30:16.768Z,2.77
2018-12-11T13:35:12.496Z,2.70
2018-12-11T13:40:08.245Z,2.60
2018-12-11T13:45:04.288Z,3.03
2018-12-11T13:50:00.028Z,2.93
2018-12-11T13:54:55.753Z,2.97
2018-12-11T13:59:51.472Z,3.10
2018-12-11T14:04:47.199Z,3.03
2018-12-11T14:09:42.932Z,3.40
2018-12-11T14:14:38.705Z,3.57
2018-12-11T14:19:34.464Z,3.20
2018-12-11T14:24:30.227Z,3.47
2018-12-11T14:29:26.172Z,3.40
2018-12-11T14:44:50.517Z,3.60
2018-12-11T14:49:46.276Z,3.70
2018-12-11T14:54:42.059Z,3.57
2018-12-11T14:59:37.800Z,3.60
2018-12-11T15:04:33.576Z,3.27
2018-12-11T15:09:35.394Z,3.60
2018-12-11T15:14:31.183Z,3.60
2018-12-11T15:19:26.946Z,4.43
2018-12-11T15:24:22.707Z,3.80
2018-12-11T15:29:18.461Z,3.33
2018-12-11T15:34:14.227Z,3.83
2018-12-11T15:39:10.020Z,3.30
2018-12-11T15:44:05.918Z,4.27
2018-12-11T15:49:01.726Z,3.50
2018-12-11T15:53:57.470Z,4.20
2018-12-11T15:58:53.223Z,3.47
2018-12-11T16:03:48.995Z,3.63
2018-12-11T16:08:44.743Z,4.30
2018-12-11T16:13:40.520Z,3.83
2018-12-11T16:18:36.293Z,3.07
2018-12-11T16:23:32.052Z,3.67
2018-12-11T16:28:28.939Z,3.70
2018-12-11T16:33:24.951Z,4.43
2018-12-11T16:38:20.737Z,4.93
2018-12-11T16:43:16.498Z,6.00
2018-12-11T16:48:12.277Z,4.80
2018-12-11T16:53:08.067Z,5.60
2018-12-11T16:58:03.834Z,4.80
2018-12-11T17:02:59.576Z,4.00
2018-12-11T17:07:55.351Z,5.67
2018-12-11T17:12:51.138Z,4.77
2018-12-11T17:17:47.147Z,3.83
2018-12-11T17:22:42.924Z,5.20
2018-12-11T17:27:38.668Z,4.20
2018-12-11T17:32:34.441Z,4.40
2018-12-11T17:37:30.196Z,3.80
2018-12-11T17:42:26.039Z,4.33
2018-12-11T17:47:21.820Z,3.90
2018-12-11T17:52:17.607Z,4.73
2018-12-11T17:57:13.382Z,4.93
2018-12-11T18:02:11.382Z,4.27
2018-12-11T18:07:07.151Z,4.47
2018-12-11T18:12:02.920Z,4.87
2018-12-11T18:16:58.692Z,3.90
2018-12-11T18:21:54.461Z,4.77
2018-12-11T18:26:50.213Z,5.10
2018-12-11T18:31:46.048Z,5.27
2018-12-11T18:36:42.213Z,4.57
2018-12-11T18:41:37.938Z,4.60
2018-12-11T18:46:33.719Z,4.93
2018-12-11T18:51:29.492Z,4.60
2018-12-11T18:56:25.234Z,4.87
2018-12-11T19:01:21.028Z,5.70
2018-12-11T19:06:16.808Z,5.70
2018-12-11T19:11:12.584Z,5.30
2018-12-11T19:16:08.369Z,5.77
2018-12-11T19:21:04.274Z,4.93
2018-12-11T19:26:00.076Z,5.33
2018-12-11T19:30:56.022Z,5.33
2018-12-11T19:35:51.912Z,4.80
2018-12-11T19:40:47.739Z,5.53
2018-12-11T19:45:43.532Z,5.20
2018-12-11T19:50:39.422Z,5.10
2018-12-11T19:55:35.267Z,5.50
2018-12-11T20:00:31.304Z,5.53
2018-12-11T20:05:27.118Z,7.80
2018-12-11T20:10:24.960Z,6.43
2018-12-11T20:15:20.740Z,6.53
2018-12-11T20:20:25.143Z,7.30
2018-12-11T20:25:20.973Z,5.83
2018-12-11T20:30:16.768Z,7.30
2018-12-11T20:35:12.669Z,6.20
2018-12-11T20:40:08.854Z,6.07
2018-12-11T20:45:04.764Z,6.13
2018-12-11T20:50:01.963Z,6.10
2018-12-11T20:54:57.803Z,5.93
2018-12-11T20:59:53.621Z,7.20
2018-12-11T21:04:49.405Z,6.50
2018-12-11T21:09:45.261Z,7.43
2018-12-11T21:14:41.000Z,7.50
2018-12-11T21:19:36.771Z,7.60
2018-12-11T21:24:32.564Z,7.33
2018-12-11T21:29:28.478Z,7.77
2018-12-11T21:34:24.240Z,7.83
2018-12-11T21:39:20.019Z,7.63
2018-12-11T21:44:15.819Z,7.83
2018-12-11T21:49:11.575Z,9.00
2018-12-11T21:54:07.386Z,10.90
2018-12-11T21:59:03.147Z,9.03
2018-12-11T22:03:58.923Z,8.37
2018-12-11T22:08:54.773Z,8.07
2018-12-11T22:13:50.606Z,8.03
2018-12-11T22:18:46.357Z,8.87
2018-12-11T22:23:42.138Z,8.77
2018-12-11T22:28:37.883Z,9.20
2018-12-11T22:33:33.641Z,8.27
2018-12-11T22:38:29.403Z,9.30
2018-12-11T22:43:25.175Z,8.60
2018-12-11T22:48:20.944Z,8.43
2018-12-11T22:53:16.738Z,9.93
2018-12-11T22:58:12.551Z,9.13
2018-12-11T23:03:08.271Z,9.00
2018-12-11T23:08:04.029Z,9.30
2018-12-11T23:12:59.778Z,8.60
2018-12-11T23:17:55.539Z,8.53
2018-12-11T23:22:51.317Z,9.30
2018-12-11T23:27:47.064Z,8.97
2018-12-11T23:32:42.819Z,9.90
2018-12-11T23:37:38.615Z,9.27
2018-12-11T23:42:34.383Z,9.33
2018-12-11T23:47:30.152Z,9.57
2018-12-11T23:57:39.104Z,10.27
